Time;durP1;ratioP1;P1;durP2;ratioP2;P2;SDS_P1;SDS_P2;PMS_P1;PMS_P2;Temp;Humidity;BMP_temperature;BMP_pressure;BME280_temperature;BME280_humidity;BME280_pressure;Samples;Min_cycle;Max_cycle;Signal;HPM_P1;HPM_P2
2023/08/30 00:01:02;;;;;;;6.75;4.10;;;;;;;11.56;100.00;96711.00;5011365;28;20044;-60
2023/08/30 00:03:29;;;;;;;5.88;3.85;;;;;;;11.57;100.00;96705.31;4980961;28;20050;-61
2023/08/30 00:06:02;;;;;;;5.47;3.80;;;;;;;11.58;100.00;96698.81;5019056;28;20076;-61
2023/08/30 00:08:29;;;;;;;5.63;4.50;;;;;;;11.62;100.00;96703.69;4969370;28;20053;-62
2023/08/30 00:10:58;;;;;;;6.28;4.32;;;;;;;11.68;100.00;96703.41;4980838;28;20070;-62
2023/08/30 00:13:26;;;;;;;6.90;4.60;;;;;;;11.71;100.00;96697.44;4976478;28;20118;-61
2023/08/30 00:15:53;;;;;;;7.05;4.32;;;;;;;11.78;100.00;96699.84;4994689;28;20036;-62
2023/08/30 00:18:20;;;;;;;6.55;4.25;;;;;;;11.72;100.00;96703.66;4972139;28;20035;-62
2023/08/30 00:20:47;;;;;;;4.93;3.67;;;;;;;11.65;100.00;96700.44;4994152;28;20047;-62
2023/08/30 00:23:14;;;;;;;6.18;4.22;;;;;;;11.63;100.00;96713.44;4972812;28;20623;-61
2023/08/30 00:25:40;;;;;;;8.18;4.60;;;;;;;11.60;100.00;96695.81;5010157;28;20536;-62
2023/08/30 00:28:07;;;;;;;6.65;4.38;;;;;;;11.61;100.00;96710.19;4984863;28;20039;-62
2023/08/30 00:30:34;;;;;;;8.93;5.07;;;;;;;11.76;100.00;96704.72;4996160;28;20046;-62
2023/08/30 00:33:03;;;;;;;7.57;5.07;;;;;;;11.77;100.00;96690.09;4970989;28;20054;-61
2023/08/30 00:35:29;;;;;;;8.23;4.85;;;;;;;11.81;100.00;96691.16;5014599;28;20031;-61
2023/08/30 00:37:56;;;;;;;6.30;4.85;;;;;;;11.88;100.00;96693.56;4985672;28;20053;-61
2023/08/30 00:40:24;;;;;;;5.43;4.93;;;;;;;11.90;100.00;96685.97;4984198;28;20062;-62
2023/08/30 00:42:52;;;;;;;5.80;3.65;;;;;;;11.92;100.00;96682.97;4967035;28;20055;-61
2023/08/30 00:45:19;;;;;;;6.90;4.15;;;;;;;11.81;100.00;96682.19;4980799;28;20466;-62
2023/08/30 00:47:46;;;;;;;6.85;4.40;;;;;;;11.83;100.00;96680.84;5000785;28;20046;-61
2023/08/30 00:50:13;;;;;;;8.02;4.38;;;;;;;11.82;100.00;96681.94;4987381;28;20063;-62
2023/08/30 00:52:41;;;;;;;5.97;4.50;;;;;;;11.79;100.00;96678.97;4969873;28;20046;-61
2023/08/30 00:55:08;;;;;;;9.10;5.30;;;;;;;11.85;100.00;96683.28;4985919;28;20043;-63
2023/08/30 00:57:34;;;;;;;6.97;4.82;;;;;;;11.81;100.00;96672.19;4969897;28;20059;-61
2023/08/30 01:00:04;;;;;;;6.32;4.57;;;;;;;11.78;100.00;96663.75;4971018;28;20152;-62
2023/08/30 01:02:31;;;;;;;6.63;4.63;;;;;;;11.67;100.00;96668.41;4961616;28;20454;-62
2023/08/30 01:05:02;;;;;;;6.90;4.70;;;;;;;11.57;100.00;96669.25;4974825;28;20113;-62
2023/08/30 01:07:28;;;;;;;5.95;4.88;;;;;;;11.57;100.00;96685.53;4981491;28;20078;-61
2023/08/30 01:09:55;;;;;;;6.28;4.70;;;;;;;11.60;100.00;96684.97;4999697;28;20547;-62
2023/08/30 01:12:27;;;;;;;6.55;5.43;;;;;;;11.63;100.00;96681.72;4975414;28;20039;-61
2023/08/30 01:15:05;;;;;;;7.53;5.60;;;;;;;11.62;100.00;96682.00;4973254;28;20438;-62
2023/08/30 01:17:32;;;;;;;7.10;6.00;;;;;;;11.58;100.00;96668.97;4978788;28;20035;-62
2023/08/30 01:20:16;;;;;;;8.25;5.55;;;;;;;11.60;100.00;96673.34;4985435;28;20417;-61
2023/08/30 01:22:53;;;;;;;8.07;5.78;;;;;;;11.60;100.00;96667.91;4982443;28;20107;-61
2023/08/30 01:25:37;;;;;;;8.25;5.50;;;;;;;11.55;100.00;96666.84;4982062;28;20031;-62
2023/08/30 01:28:06;;;;;;;7.40;5.10;;;;;;;11.52;100.00;96670.09;4968461;28;20066;-62
2023/08/30 01:30:37;;;;;;;6.40;4.95;;;;;;;11.36;100.00;96669.31;4973125;28;20045;-62
2023/08/30 01:33:04;;;;;;;8.23;5.57;;;;;;;11.39;100.00;96674.19;4982489;28;20107;-62
2023/08/30 01:35:35;;;;;;;6.63;4.75;;;;;;;11.37;100.00;96675.53;4967184;28;20046;-62
2023/08/30 01:38:04;;;;;;;10.50;5.10;;;;;;;11.36;100.00;96666.63;4964643;28;20482;-61
2023/08/30 01:40:38;;;;;;;6.38;4.82;;;;;;;11.32;100.00;96669.03;4960271;28;20030;-61
2023/08/30 01:43:07;;;;;;;6.18;5.13;;;;;;;11.23;100.00;96651.72;4963954;28;20043;-62
2023/08/30 01:45:38;;;;;;;5.47;4.40;;;;;;;11.21;100.00;96650.38;4976240;28;20039;-62
2023/08/30 01:48:09;;;;;;;7.75;5.13;;;;;;;11.09;100.00;96656.09;4970957;28;20066;-62
2023/08/30 01:50:39;;;;;;;6.00;4.85;;;;;;;11.12;100.00;96664.47;4965873;28;20288;-62
2023/08/30 01:53:08;;;;;;;9.25;4.63;;;;;;;11.04;100.00;96665.03;4972869;28;20050;-62
2023/08/30 01:55:37;;;;;;;7.90;5.10;;;;;;;11.14;100.00;96672.34;4975039;28;20127;-62
2023/08/30 01:58:06;;;;;;;7.80;4.97;;;;;;;10.99;100.00;96665.84;5027720;28;20113;-62
2023/08/30 02:00:35;;;;;;;9.05;5.18;;;;;;;11.04;100.00;96665.84;5004027;28;20054;-60
2023/08/30 02:03:13;;;;;;;6.10;5.18;;;;;;;10.99;100.00;96668.53;4975391;28;20061;-61
2023/08/30 02:06:14;;;;;;;6.82;4.90;;;;;;;10.87;100.00;96673.44;4968019;28;20112;-62
2023/08/30 02:08:49;;;;;;;6.40;5.13;;;;;;;10.88;100.00;96670.44;4992134;28;20054;-61
2023/08/30 02:11:22;;;;;;;7.32;4.88;;;;;;;10.89;100.00;96663.97;4967058;28;20051;-61
2023/08/30 02:13:52;;;;;;;7.85;4.90;;;;;;;10.83;100.00;96666.94;4974034;28;20049;-61
2023/08/30 02:16:19;;;;;;;7.20;4.68;;;;;;;10.95;100.00;96664.78;4982985;28;20039;-61
2023/08/30 02:18:47;;;;;;;8.80;5.45;;;;;;;10.97;100.00;96670.72;4982986;28;20057;-61
2023/08/30 02:21:14;;;;;;;8.38;5.50;;;;;;;10.98;100.00;96675.06;4945252;28;20051;-61
2023/08/30 02:23:40;;;;;;;9.70;5.45;;;;;;;11.02;100.00;96668.00;4962511;28;20035;-62
2023/08/30 02:26:07;;;;;;;6.03;5.20;;;;;;;10.95;100.00;96663.97;4978315;28;20041;-62
2023/08/30 02:28:34;;;;;;;9.90;4.82;;;;;;;10.75;100.00;96663.69;4987330;28;20038;-61
2023/08/30 02:31:00;;;;;;;9.55;5.28;;;;;;;10.75;100.00;96679.09;4964065;28;20089;-61
2023/08/30 02:33:27;;;;;;;7.32;5.18;;;;;;;10.79;100.00;96675.59;4960983;28;20126;-62
2023/08/30 02:35:53;;;;;;;6.95;5.15;;;;;;;10.68;100.00;96671.25;5001442;28;20048;-61
2023/08/30 02:38:20;;;;;;;6.75;4.97;;;;;;;10.75;100.00;96679.94;4961230;28;20057;-60
2023/08/30 02:40:47;;;;;;;6.82;5.07;;;;;;;10.70;100.00;96674.53;5007221;28;20040;-61
2023/08/30 02:43:15;;;;;;;8.48;5.18;;;;;;;10.73;100.00;96667.75;4964389;28;20538;-60
2023/08/30 02:45:42;;;;;;;7.97;5.53;;;;;;;10.70;100.00;96665.56;4978551;28;20384;-60
2023/08/30 02:48:08;;;;;;;7.57;5.07;;;;;;;10.59;100.00;96671.00;4964612;28;20130;-60
2023/08/30 02:50:35;;;;;;;7.05;5.57;;;;;;;10.61;100.00;96682.34;4977764;28;20119;-61
2023/08/30 02:53:03;;;;;;;7.63;6.30;;;;;;;10.73;100.00;96700.25;4974225;28;20091;-61
2023/08/30 02:55:31;;;;;;;10.15;6.35;;;;;;;10.78;100.00;96687.53;4973187;28;20043;-61
2023/08/30 02:57:57;;;;;;;7.97;5.97;;;;;;;10.91;100.00;96688.88;4976564;28;20050;-60
2023/08/30 03:00:24;;;;;;;6.82;5.57;;;;;;;10.96;100.00;96682.66;4971676;28;20043;-61
2023/08/30 03:02:51;;;;;;;7.10;5.45;;;;;;;11.01;100.00;96679.09;4989256;28;20061;-61
2023/08/30 03:05:18;;;;;;;8.70;5.20;;;;;;;11.06;100.00;96665.59;4980757;28;20034;-60
2023/08/30 03:07:46;;;;;;;8.85;5.82;;;;;;;11.11;100.00;96664.75;4973762;28;20038;-60
2023/08/30 03:10:12;;;;;;;8.20;5.53;;;;;;;11.14;100.00;96666.91;4966993;28;20053;-60
2023/08/30 03:12:39;;;;;;;7.07;5.40;;;;;;;11.17;100.00;96659.03;4991897;28;20051;-61
2023/08/30 03:15:06;;;;;;;8.43;5.60;;;;;;;11.15;100.00;96657.69;4958989;28;20050;-59
2023/08/30 03:17:34;;;;;;;7.05;5.40;;;;;;;11.19;100.00;96658.78;4975178;28;20039;-60
2023/08/30 03:20:03;;;;;;;6.57;5.30;;;;;;;11.24;100.00;96653.34;4968082;28;20049;-61
2023/08/30 03:22:31;;;;;;;5.63;4.72;;;;;;;11.27;100.00;96654.69;4970022;28;20043;-60
2023/08/30 03:24:58;;;;;;;6.18;4.32;;;;;;;11.29;100.00;96653.34;4958904;28;20127;-61
2023/08/30 03:27:25;;;;;;;7.68;5.47;;;;;;;11.29;100.00;96652.53;4979531;28;20043;-60
2023/08/30 03:29:51;;;;;;;5.82;4.90;;;;;;;11.29;100.00;96649.81;4963752;28;20153;-60
2023/08/30 03:32:20;;;;;;;5.95;4.75;;;;;;;11.26;100.00;96645.75;4991758;28;20498;-60
2023/08/30 03:34:48;;;;;;;8.02;4.63;;;;;;;11.24;100.00;96642.50;4956233;28;20074;-61
2023/08/30 03:37:16;;;;;;;6.45;5.15;;;;;;;11.23;100.00;96646.31;4991437;28;20039;-61
2023/08/30 03:39:43;;;;;;;7.20;5.03;;;;;;;11.12;100.00;96648.22;4979899;28;20455;-61
2023/08/30 03:42:10;;;;;;;6.53;4.95;;;;;;;11.12;100.00;96653.63;4980482;28;20490;-60
2023/08/30 03:44:38;;;;;;;10.27;5.75;;;;;;;11.08;100.00;96657.16;4960260;28;20099;-61
2023/08/30 03:47:06;;;;;;;7.93;6.05;;;;;;;11.08;100.00;96659.88;4984485;28;20043;-60
2023/08/30 03:49:33;;;;;;;6.75;5.57;;;;;;;11.12;100.00;96655.53;4994443;28;20145;-60
2023/08/30 03:51:59;;;;;;;9.13;5.78;;;;;;;11.15;100.00;96655.81;4979096;28;20057;-61
2023/08/30 03:54:26;;;;;;;8.68;6.28;;;;;;;11.23;100.00;96659.03;4998494;28;20134;-60
2023/08/30 03:56:53;;;;;;;7.35;5.28;;;;;;;11.24;100.00;96656.06;4979599;28;20078;-60
2023/08/30 03:59:19;;;;;;;6.57;5.43;;;;;;;11.31;100.00;96658.47;4971564;28;20049;-60
2023/08/30 04:01:46;;;;;;;6.85;5.25;;;;;;;11.34;100.00;96655.22;4981051;28;20125;-60
2023/08/30 04:04:12;;;;;;;6.45;5.40;;;;;;;11.36;100.00;96654.97;4966418;28;20460;-61
2023/08/30 04:06:39;;;;;;;9.45;5.82;;;;;;;11.45;100.00;96661.44;4968820;28;20387;-61
2023/08/30 04:09:06;;;;;;;6.78;5.40;;;;;;;11.44;100.00;96649.78;4997572;28;20555;-60
2023/08/30 04:11:33;;;;;;;6.28;5.03;;;;;;;11.38;100.00;96645.47;4989493;28;20042;-60
2023/08/30 04:13:59;;;;;;;6.97;5.68;;;;;;;11.39;100.00;96657.13;4962626;28;20070;-61
2023/08/30 04:16:26;;;;;;;8.65;6.45;;;;;;;11.41;100.00;96658.47;4996105;28;20042;-60
2023/08/30 04:18:53;;;;;;;7.38;5.40;;;;;;;11.42;100.00;96653.84;4993651;28;20514;-60
2023/08/30 04:21:20;;;;;;;6.45;5.40;;;;;;;11.44;100.00;96655.22;4979903;28;20077;-61
2023/08/30 04:23:47;;;;;;;9.65;5.57;;;;;;;11.44;100.00;96655.22;4969548;28;20129;-59
2023/08/30 04:26:13;;;;;;;7.30;5.68;;;;;;;11.39;100.00;96655.22;4974758;28;20638;-60
2023/08/30 04:28:40;;;;;;;10.57;6.20;;;;;;;11.36;100.00;96653.06;4980168;28;20133;-60
2023/08/30 04:31:07;;;;;;;7.07;5.97;;;;;;;11.45;100.00;96662.25;4974348;28;20104;-61
2023/08/30 04:33:33;;;;;;;7.20;5.35;;;;;;;11.27;100.00;96655.50;4962541;28;20050;-61
2023/08/30 04:36:03;;;;;;;8.52;6.10;;;;;;;11.39;100.00;96662.53;4985185;28;20047;-61
2023/08/30 04:38:31;;;;;;;7.85;6.25;;;;;;;11.36;100.00;96652.25;4972553;28;20052;-61
2023/08/30 04:40:59;;;;;;;7.45;6.38;;;;;;;11.40;100.00;96653.31;4977178;28;20058;-60
2023/08/30 04:43:26;;;;;;;8.10;6.63;;;;;;;11.40;100.00;96651.44;4966239;28;20568;-61
2023/08/30 04:45:53;;;;;;;8.27;6.63;;;;;;;11.46;100.00;96652.22;4966324;28;20573;-61
2023/08/30 04:48:24;;;;;;;10.25;6.30;;;;;;;11.49;100.00;96643.53;4961957;28;20043;-60
2023/08/30 04:50:58;;;;;;;9.10;6.50;;;;;;;11.50;100.00;96647.84;4969638;28;20117;-60
2023/08/30 04:53:25;;;;;;;10.65;6.63;;;;;;;11.51;100.00;96654.91;4964332;28;20050;-61
2023/08/30 04:55:52;;;;;;;7.88;5.85;;;;;;;11.54;100.00;96658.97;4973771;28;20122;-61
2023/08/30 04:58:18;;;;;;;7.18;6.05;;;;;;;11.62;100.00;96649.47;4964818;28;20053;-60
2023/08/30 05:00:45;;;;;;;7.65;6.38;;;;;;;11.64;100.00;96650.00;4983691;28;20036;-61
2023/08/30 05:03:12;;;;;;;8.68;5.60;;;;;;;11.78;100.00;96640.19;4989555;28;20072;-61
2023/08/30 05:05:39;;;;;;;9.32;5.93;;;;;;;11.77;100.00;96640.44;4979339;28;20398;-60
2023/08/30 05:08:06;;;;;;;8.82;6.40;;;;;;;11.78;100.00;96650.19;4974133;28;20051;-61
2023/08/30 05:10:33;;;;;;;8.90;6.28;;;;;;;11.75;100.00;96640.72;4979069;28;20087;-61
2023/08/30 05:13:00;;;;;;;7.78;6.30;;;;;;;11.79;100.00;96641.78;4997034;28;20051;-60
2023/08/30 05:15:27;;;;;;;10.75;5.72;;;;;;;11.81;100.00;96641.53;4967517;28;20043;-61
2023/08/30 05:17:53;;;;;;;7.22;5.75;;;;;;;11.81;100.00;96638.81;4987028;28;20043;-61
2023/08/30 05:20:20;;;;;;;8.27;5.75;;;;;;;11.86;100.00;96646.13;4967497;28;20108;-60
2023/08/30 05:22:48;;;;;;;8.25;6.07;;;;;;;11.93;100.00;96638.47;4967100;28;20058;-61
2023/08/30 05:25:15;;;;;;;6.68;5.05;;;;;;;11.94;100.00;96643.63;4973340;28;20046;-61
2023/08/30 05:27:41;;;;;;;6.47;5.40;;;;;;;11.95;100.00;96641.72;4993195;28;20058;-61
2023/08/30 05:30:08;;;;;;;6.82;5.40;;;;;;;11.95;100.00;96639.03;4961194;28;20051;-61
2023/08/30 05:32:35;;;;;;;6.93;4.90;;;;;;;12.00;100.00;96644.41;4964486;28;20556;-61
2023/08/30 05:35:17;;;;;;;5.70;5.03;;;;;;;12.03;100.00;96643.88;4975859;28;20585;-61
2023/08/30 05:38:07;;;;;;;8.05;4.65;;;;;;;12.15;100.00;96637.31;4964974;28;20055;-61
2023/08/30 05:40:57;;;;;;;7.87;4.67;;;;;;;12.14;100.00;96632.97;4988306;28;20048;-61
2023/08/30 05:43:24;;;;;;;5.82;5.15;;;;;;;12.11;100.00;96631.63;4974216;28;20046;-61
2023/08/30 05:45:53;;;;;;;6.47;5.07;;;;;;;12.22;100.00;96630.50;4981659;28;20050;-61
2023/08/30 05:48:20;;;;;;;6.85;5.03;;;;;;;12.31;100.00;96629.91;4967104;28;20487;-61
2023/08/30 05:50:47;;;;;;;5.57;4.72;;;;;;;12.16;100.00;96628.09;4996910;28;20064;-61
2023/08/30 05:53:14;;;;;;;9.20;5.15;;;;;;;12.29;100.00;96632.06;4970101;28;20047;-60
2023/08/30 05:55:41;;;;;;;11.98;5.55;;;;;;;12.29;100.00;96635.59;4994463;28;20043;-61
2023/08/30 05:58:07;;;;;;;6.68;5.35;;;;;;;12.23;100.00;96637.53;4976578;28;20527;-61
2023/08/30 06:00:34;;;;;;;6.85;5.43;;;;;;;12.31;100.00;96643.47;4954616;28;20065;-61
2023/08/30 06:03:02;;;;;;;7.05;4.55;;;;;;;12.36;100.00;96638.78;4973285;28;20129;-61
2023/08/30 06:05:29;;;;;;;7.32;5.18;;;;;;;12.43;100.00;96643.13;4991905;28;21144;-60
2023/08/30 06:07:57;;;;;;;7.78;5.55;;;;;;;12.43;100.00;96651.25;4980983;28;20698;-60
2023/08/30 06:10:23;;;;;;;6.50;5.15;;;;;;;12.39;100.00;96644.75;4963880;28;20444;-61
2023/08/30 06:12:50;;;;;;;6.25;5.00;;;;;;;12.44;100.00;96647.44;4987844;28;20043;-60
2023/08/30 06:15:16;;;;;;;6.40;4.68;;;;;;;12.39;100.00;96648.31;4987771;28;20050;-60
2023/08/30 06:17:43;;;;;;;5.70;4.85;;;;;;;12.49;100.00;96640.06;4981455;28;20132;-61
2023/08/30 06:20:10;;;;;;;5.72;4.78;;;;;;;12.48;100.00;96652.03;4967606;28;20038;-61
2023/08/30 06:22:37;;;;;;;6.75;4.70;;;;;;;12.62;100.00;96648.69;4989786;28;20050;-61
2023/08/30 06:25:04;;;;;;;6.38;5.13;;;;;;;12.56;100.00;96647.91;4970147;28;20051;-61
2023/08/30 06:27:30;;;;;;;6.18;4.68;;;;;;;12.66;100.00;96644.31;4983105;28;20047;-61
2023/08/30 06:29:57;;;;;;;6.40;4.25;;;;;;;12.72;100.00;96639.66;4963551;28;20042;-61
2023/08/30 06:32:24;;;;;;;6.22;4.85;;;;;;;12.78;100.00;96643.94;4971098;28;20121;-61
2023/08/30 06:34:51;;;;;;;5.75;4.72;;;;;;;12.83;100.00;96638.44;4960055;28;20039;-61
2023/08/30 06:37:17;;;;;;;6.78;4.45;;;;;;;12.97;100.00;96641.31;5001733;28;20035;-61
2023/08/30 06:39:44;;;;;;;6.70;4.15;;;;;;;12.96;100.00;96644.31;4968246;28;20757;-61
2023/08/30 06:42:11;;;;;;;10.50;4.82;;;;;;;12.95;100.00;96637.28;4976731;28;20042;-61
2023/08/30 06:44:40;;;;;;;8.23;4.30;;;;;;;12.86;100.00;96643.31;4963737;28;20050;-61
2023/08/30 06:47:07;;;;;;;7.03;4.20;;;;;;;12.81;100.00;96640.66;4982841;28;20039;-61
2023/08/30 06:49:33;;;;;;;7.35;4.10;;;;;;;12.85;100.00;96641.72;4961402;28;20054;-60
2023/08/30 06:52:04;;;;;;;7.22;5.32;;;;;;;12.82;100.00;96649.59;4969820;28;20046;-60
2023/08/30 06:54:34;;;;;;;6.33;4.17;;;;;;;12.80;100.00;96641.75;4971441;28;20049;-60
2023/08/30 06:57:00;;;;;;;5.95;4.13;;;;;;;12.86;100.00;96645.22;4985379;28;20662;-60
2023/08/30 06:59:27;;;;;;;7.00;4.97;;;;;;;12.87;100.00;96636.00;4958702;28;20054;-60
2023/08/30 07:01:54;;;;;;;6.93;4.35;;;;;;;12.88;100.00;96635.72;4970362;28;20064;-59
2023/08/30 07:04:21;;;;;;;5.82;4.70;;;;;;;12.75;100.00;96630.91;4967901;28;20068;-60
2023/08/30 07:06:47;;;;;;;6.22;5.00;;;;;;;12.80;100.00;96630.88;4963606;28;20043;-58
2023/08/30 07:09:14;;;;;;;7.20;5.00;;;;;;;12.83;100.00;96633.00;4968504;28;20130;-59
2023/08/30 07:11:44;;;;;;;7.13;4.85;;;;;;;12.79;100.00;96626.53;4966393;28;20039;-61
2023/08/30 07:14:12;;;;;;;6.15;5.03;;;;;;;12.94;100.00;96625.59;4957113;28;20047;-60
2023/08/30 07:16:38;;;;;;;7.80;4.55;;;;;;;12.90;100.00;96624.53;4963763;28;20047;-60
2023/08/30 07:19:05;;;;;;;5.60;4.47;;;;;;;13.00;100.00;96632.59;4983555;28;20522;-60
2023/08/30 07:21:32;;;;;;;7.20;5.43;;;;;;;12.94;100.00;96622.06;4960253;28;20114;-60
2023/08/30 07:23:59;;;;;;;9.77;4.80;;;;;;;12.81;100.00;96618.91;4968947;28;20443;-61
2023/08/30 07:26:26;;;;;;;7.18;4.80;;;;;;;12.85;100.00;96628.13;4984160;28;20127;-61
2023/08/30 07:28:52;;;;;;;6.55;5.15;;;;;;;12.83;100.00;96624.88;4994949;28;20049;-61
2023/08/30 07:31:19;;;;;;;7.35;5.20;;;;;;;12.88;100.00;96624.03;4965734;28;20049;-61
2023/08/30 07:33:46;;;;;;;6.80;5.20;;;;;;;13.09;100.00;96629.28;4983470;28;20518;-61
2023/08/30 07:36:12;;;;;;;8.23;4.95;;;;;;;13.20;100.00;96633.50;4966011;28;20084;-61
2023/08/30 07:38:39;;;;;;;6.43;4.07;;;;;;;13.37;100.00;96634.94;4977900;28;20043;-61
2023/08/30 07:41:06;;;;;;;7.80;3.80;;;;;;;13.50;100.00;96634.28;4965068;28;20046;-61
2023/08/30 07:43:32;;;;;;;6.13;3.90;;;;;;;13.61;100.00;96626.84;4967815;28;20541;-61
2023/08/30 07:45:59;;;;;;;5.50;3.97;;;;;;;13.67;100.00;96624.84;4961839;28;20043;-61
2023/08/30 07:48:26;;;;;;;7.07;3.70;;;;;;;13.74;100.00;96636.22;5014524;28;20060;-61
2023/08/30 07:50:52;;;;;;;6.00;3.67;;;;;;;13.87;100.00;96621.09;4958926;28;20050;-61
2023/08/30 07:53:19;;;;;;;9.38;3.95;;;;;;;13.97;100.00;96622.06;4959660;28;20046;-61
2023/08/30 07:55:50;;;;;;;4.50;3.53;;;;;;;14.17;100.00;96618.25;4975251;28;20046;-61
2023/08/30 07:58:19;;;;;;;4.40;3.55;;;;;;;14.20;100.00;96617.66;4977150;28;20667;-61
2023/08/30 08:00:51;;;;;;;4.47;3.05;;;;;;;14.21;100.00;96615.72;4995753;28;20058;-59
2023/08/30 08:03:18;;;;;;;5.05;3.00;;;;;;;14.42;100.00;96617.03;4989249;28;20516;-61
2023/08/30 08:05:44;;;;;;;4.03;2.60;;;;;;;14.50;100.00;96615.59;4968245;28;20050;-61
2023/08/30 08:08:11;;;;;;;7.43;3.13;;;;;;;14.50;100.00;96621.03;4998164;28;20042;-60
2023/08/30 08:10:38;;;;;;;4.93;2.88;;;;;;;14.59;100.00;96620.34;4958675;28;20042;-59
2023/08/30 08:13:04;;;;;;;4.07;2.67;;;;;;;14.67;100.00;96617.75;4968515;28;20077;-60
2023/08/30 08:15:32;;;;;;;5.22;3.00;;;;;;;14.78;100.00;96614.91;4967256;28;20058;-59
2023/08/30 08:18:02;;;;;;;6.38;3.08;;;;;;;14.83;100.00;96620.25;4998701;28;20051;-59
2023/08/30 08:20:29;;;;;;;4.38;3.08;;;;;;;15.01;100.00;96620.50;4964491;28;20038;-60
2023/08/30 08:22:55;;;;;;;4.40;3.05;;;;;;;15.11;100.00;96619.53;4983937;28;20053;-59
2023/08/30 08:25:23;;;;;;;4.70;3.28;;;;;;;15.10;100.00;96621.44;4987963;28;20755;-59
2023/08/30 08:27:53;;;;;;;5.20;3.50;;;;;;;14.97;100.00;96620.31;4985277;28;20062;-59
2023/08/30 08:30:20;;;;;;;4.85;3.83;;;;;;;15.10;100.00;96621.44;4960280;28;20415;-59
2023/08/30 08:32:49;;;;;;;4.43;2.85;;;;;;;15.19;100.00;96625.09;4990422;28;20046;-59
2023/08/30 08:35:16;;;;;;;5.00;3.00;;;;;;;15.24;100.00;96617.91;4968491;28;20053;-58
2023/08/30 08:37:43;;;;;;;5.72;3.20;;;;;;;15.31;99.64;96621.88;5004393;28;20042;-59
2023/08/30 08:40:10;;;;;;;4.13;2.97;;;;;;;15.37;97.75;96619.06;4972055;28;20050;-59
2023/08/30 08:42:37;;;;;;;4.72;3.22;;;;;;;15.37;98.35;96608.94;4982583;28;20047;-58
2023/08/30 08:45:04;;;;;;;4.13;3.00;;;;;;;15.49;96.77;96616.63;4968784;28;20142;-59
2023/08/30 08:47:31;;;;;;;6.53;3.03;;;;;;;15.64;96.03;96614.72;4991947;28;20136;-58
2023/08/30 08:49:59;;;;;;;4.43;2.97;;;;;;;15.69;94.27;96620.06;4970797;28;20046;-59
2023/08/30 08:52:27;;;;;;;4.65;2.60;;;;;;;15.81;94.02;96620.34;4973920;28;20137;-59
2023/08/30 08:55:02;;;;;;;5.05;2.60;;;;;;;16.00;90.04;96624.94;4968859;28;20486;-59
2023/08/30 08:57:32;;;;;;;3.50;2.50;;;;;;;15.98;88.54;96627.97;4997086;28;20221;-58
2023/08/30 08:59:59;;;;;;;6.20;3.05;;;;;;;15.99;90.28;96626.84;4971005;28;20615;-58
2023/08/30 09:02:27;;;;;;;6.40;2.33;;;;;;;15.92;90.27;96628.34;4965046;28;20039;-59
2023/08/30 09:04:54;;;;;;;6.20;2.55;;;;;;;16.15;89.91;96623.78;4964765;28;20050;-59
2023/08/30 09:07:21;;;;;;;5.15;2.75;;;;;;;16.29;88.63;96631.94;4997404;28;20038;-59
2023/08/30 09:09:48;;;;;;;4.50;3.35;;;;;;;16.31;84.25;96635.16;4970850;28;20038;-59
2023/08/30 09:12:14;;;;;;;4.72;3.17;;;;;;;16.41;84.13;96634.13;4972997;28;20049;-59
2023/08/30 09:14:41;;;;;;;5.78;3.75;;;;;;;16.44;86.78;96635.44;4973730;28;20046;-59
2023/08/30 09:17:07;;;;;;;5.28;3.05;;;;;;;16.38;82.11;96623.81;5000661;28;20045;-59
2023/08/30 09:19:34;;;;;;;4.38;2.53;;;;;;;16.54;76.75;96621.53;4970458;28;20129;-59
2023/08/30 09:22:01;;;;;;;4.20;2.00;;;;;;;16.56;77.83;96619.31;4972462;28;20574;-59
2023/08/30 09:24:39;;;;;;;4.55;2.40;;;;;;;16.50;77.70;96621.34;4969381;28;20036;-60
2023/08/30 09:27:05;;;;;;;5.53;2.28;;;;;;;16.59;78.45;96621.41;4992410;28;20044;-59
2023/08/30 09:29:32;;;;;;;4.20;2.72;;;;;;;16.75;78.00;96626.50;4969982;28;20139;-58
2023/08/30 09:32:01;;;;;;;3.80;2.63;;;;;;;16.82;76.66;96624.16;4974224;28;20058;-59
2023/08/30 09:34:28;;;;;;;4.03;2.45;;;;;;;16.74;76.96;96620.22;4974149;28;20051;-59
2023/08/30 09:36:55;;;;;;;7.47;2.55;;;;;;;16.83;79.37;96616.75;4987755;28;20086;-59
2023/08/30 09:39:22;;;;;;;4.40;3.10;;;;;;;16.95;76.09;96614.25;4975906;28;20057;-59
2023/08/30 09:41:50;;;;;;;4.85;2.88;;;;;;;17.10;76.27;96610.34;4969323;28;20062;-60
2023/08/30 09:44:19;;;;;;;5.28;3.15;;;;;;;17.16;75.86;96614.56;4967094;28;20590;-60
2023/08/30 09:46:50;;;;;;;4.72;2.50;;;;;;;17.22;74.83;96614.44;5003333;28;20075;-60
2023/08/30 09:49:21;;;;;;;4.82;2.70;;;;;;;17.39;74.21;96617.25;4974189;28;20130;-60
2023/08/30 09:51:49;;;;;;;4.53;2.80;;;;;;;17.25;72.89;96611.88;4963871;28;20042;-60
2023/08/30 09:54:20;;;;;;;4.70;2.72;;;;;;;17.60;74.90;96610.41;4968925;28;20114;-59
2023/08/30 09:56:55;;;;;;;5.28;2.67;;;;;;;17.77;71.16;96606.94;4990201;28;20131;-60
2023/08/30 09:59:23;;;;;;;3.50;2.38;;;;;;;18.02;69.17;96612.78;4986256;28;20042;-59
2023/08/30 10:01:50;;;;;;;4.43;2.95;;;;;;;17.86;69.05;96607.75;4962304;28;20051;-60
2023/08/30 10:04:19;;;;;;;4.93;2.40;;;;;;;18.25;71.02;96608.00;4989038;28;20062;-60
2023/08/30 10:06:47;;;;;;;4.13;2.58;;;;;;;18.53;68.57;96607.69;4994515;28;20044;-59
2023/08/30 10:09:15;;;;;;;4.18;2.60;;;;;;;18.55;67.43;96604.63;5020473;28;20123;-58
2023/08/30 10:11:46;;;;;;;5.65;2.75;;;;;;;18.64;67.55;96605.41;4982032;28;20039;-60
2023/08/30 10:14:13;;;;;;;5.50;2.67;;;;;;;18.54;66.10;96600.28;4999563;28;20039;-59
2023/08/30 10:16:44;;;;;;;5.80;2.78;;;;;;;18.46;64.12;96596.38;4971303;28;20061;-58
2023/08/30 10:19:15;;;;;;;3.28;1.75;;;;;;;18.29;65.89;96589.81;5004724;28;20039;-59
2023/08/30 10:21:47;;;;;;;4.47;2.13;;;;;;;18.26;65.10;96586.88;4962978;28;20463;-59
2023/08/30 10:24:19;;;;;;;3.67;1.92;;;;;;;18.11;67.80;96591.72;4999220;28;20527;-60
2023/08/30 10:27:04;;;;;;;3.70;2.20;;;;;;;17.91;74.31;96591.16;4993013;28;20068;-58
2023/08/30 10:29:33;;;;;;;4.22;2.90;;;;;;;17.46;80.72;96594.13;4985915;28;20539;-59
2023/08/30 10:32:06;;;;;;;4.63;2.65;;;;;;;17.40;86.95;96596.19;4973885;28;20064;-60
2023/08/30 10:34:36;;;;;;;4.30;3.05;;;;;;;17.42;89.53;96593.91;4975723;28;20043;-59
2023/08/30 10:37:07;;;;;;;4.90;3.15;;;;;;;17.35;87.38;96596.28;5012366;28;20041;-59
2023/08/30 10:39:38;;;;;;;4.53;3.20;;;;;;;16.99;92.08;96589.84;4969056;28;21455;-60
2023/08/30 10:42:13;;;;;;;5.35;3.10;;;;;;;16.84;87.08;96591.84;4989758;28;20285;-60
2023/08/30 10:44:50;;;;;;;5.82;3.47;;;;;;;16.74;89.99;96586.63;4976882;28;20058;-59
2023/08/30 10:47:38;;;;;;;5.50;3.22;;;;;;;16.52;92.30;96582.78;4991431;28;20035;-60
2023/08/30 10:50:10;;;;;;;4.30;3.22;;;;;;;16.44;93.57;96592.50;4988960;28;20058;-59
2023/08/30 10:52:37;;;;;;;4.35;3.15;;;;;;;16.51;93.33;96592.09;4989744;28;20077;-58
2023/08/30 10:55:08;;;;;;;4.07;3.08;;;;;;;16.59;98.43;96587.81;4997822;28;20043;-59
2023/08/30 10:57:35;;;;;;;5.57;3.40;;;;;;;16.59;96.85;96580.41;4985367;28;20078;-60
2023/08/30 11:00:17;;;;;;;5.00;3.08;;;;;;;16.60;92.97;96575.75;4977080;28;20061;-58
2023/08/30 11:02:46;;;;;;;4.78;3.63;;;;;;;16.46;99.83;96575.81;4961451;28;20129;-58
2023/08/30 11:05:15;;;;;;;6.00;3.45;;;;;;;16.49;91.99;96576.03;4966851;28;20046;-60
2023/08/30 11:07:43;;;;;;;4.88;3.63;;;;;;;16.72;100.00;96577.91;4970817;28;20057;-60
2023/08/30 11:10:09;;;;;;;6.32;4.45;;;;;;;16.67;100.00;96586.25;4956890;28;20045;-60
2023/08/30 11:12:36;;;;;;;5.50;3.72;;;;;;;16.36;99.60;96585.06;4997237;28;20694;-58
2023/08/30 11:15:03;;;;;;;6.65;3.70;;;;;;;16.43;100.00;96585.44;4988761;28;20054;-59
2023/08/30 11:17:30;;;;;;;4.65;3.35;;;;;;;16.26;100.00;96575.22;4996149;28;20051;-59
2023/08/30 11:20:04;;;;;;;5.65;4.00;;;;;;;16.30;99.57;96569.91;4984637;28;20051;-59
2023/08/30 11:22:31;;;;;;;6.28;4.03;;;;;;;16.24;98.05;96571.97;4964374;28;20501;-59
2023/08/30 11:24:58;;;;;;;5.20;3.92;;;;;;;16.50;99.15;96568.63;4964018;28;20058;-57
2023/08/30 11:27:24;;;;;;;5.03;3.78;;;;;;;16.91;99.30;96569.50;4986587;28;20123;-58
2023/08/30 11:29:51;;;;;;;6.45;4.43;;;;;;;17.20;99.21;96572.91;4991394;28;20677;-59
2023/08/30 11:32:17;;;;;;;5.45;4.10;;;;;;;16.95;99.13;96564.25;4989301;28;20055;-57